createdAt,value
2018-03-14T00:02:16.218Z,44.80
2018-03-14T00:04:43.872Z,46.03
2018-03-14T00:07:11.547Z,41.33
2018-03-14T00:09:39.087Z,40.10
2018-03-14T00:12:06.625Z,40.33
2018-03-14T00:14:34.320Z,39.83
2018-03-14T00:17:01.949Z,37.37
2018-03-14T00:19:29.481Z,41.40
2018-03-14T00:21:57.034Z,41.00
2018-03-14T00:24:24.990Z,61.27
2018-03-14T00:26:52.525Z,81.77
2018-03-14T00:29:20.130Z,93.07
2018-03-14T00:31:47.660Z,35.50
2018-03-14T00:34:15.430Z,38.63
2018-03-14T00:36:43.367Z,39.23
2018-03-14T00:39:10.905Z,29.60
2018-03-14T00:41:38.564Z,29.43
2018-03-14T00:44:06.148Z,28.57
2018-03-14T00:46:33.719Z,30.50
2018-03-14T00:49:01.330Z,33.40
2018-03-14T00:51:28.915Z,30.97
2018-03-14T00:53:56.455Z,38.33
2018-03-14T00:56:23.999Z,42.40
2018-03-14T00:58:52.432Z,36.83
2018-03-14T01:01:20.037Z,32.67
2018-03-14T01:03:47.578Z,37.10
2018-03-14T01:06:15.418Z,28.93
2018-03-14T01:08:42.949Z,25.37
2018-03-14T01:11:10.481Z,33.13
2018-03-14T01:13:38.063Z,29.27
2018-03-14T01:16:05.595Z,31.53
2018-03-14T01:18:33.134Z,37.83
2018-03-14T01:21:00.706Z,67.20
2018-03-14T01:23:28.249Z,30.67
2018-03-14T01:25:55.889Z,29.57
2018-03-14T01:28:23.464Z,29.53
2018-03-14T01:30:50.994Z,19.93
2018-03-14T01:33:18.534Z,70.87
2018-03-14T01:35:46.117Z,103.63
2018-03-14T01:38:13.727Z,68.00
2018-03-14T01:40:41.328Z,34.43
2018-03-14T01:43:08.906Z,24.67
2018-03-14T01:45:36.440Z,40.87
2018-03-14T01:48:03.966Z,22.60
2018-03-14T01:50:31.537Z,23.00
2018-03-14T01:53:10.954Z,21.03
2018-03-14T01:55:38.581Z,17.10
2018-03-14T01:58:06.277Z,15.33
2018-03-14T02:00:33.830Z,15.40
2018-03-14T02:03:02.246Z,12.80
2018-03-14T02:05:29.774Z,17.93
2018-03-14T02:07:58.390Z,19.57
2018-03-14T02:10:25.973Z,17.87
2018-03-14T02:12:53.518Z,15.13
2018-03-14T02:15:21.242Z,16.03
2018-03-14T02:17:48.833Z,17.00
2018-03-14T02:20:16.710Z,16.43
2018-03-14T02:22:44.393Z,20.47
2018-03-14T02:25:12.233Z,24.60
2018-03-14T02:27:39.776Z,20.97
2018-03-14T02:30:07.326Z,20.90
2018-03-14T02:32:34.898Z,21.37
2018-03-14T02:35:02.478Z,22.73
2018-03-14T02:37:30.129Z,15.03
2018-03-14T02:39:57.689Z,15.07
2018-03-14T02:42:25.231Z,18.07
2018-03-14T02:44:52.796Z,15.60
2018-03-14T02:47:20.566Z,19.30
2018-03-14T02:49:48.119Z,20.53
2018-03-14T02:52:15.642Z,20.90
2018-03-14T02:54:43.325Z,19.40
2018-03-14T02:57:11.632Z,26.33
2018-03-14T02:59:39.293Z,23.27
2018-03-14T03:02:06.843Z,16.57
2018-03-14T03:04:34.356Z,13.30
2018-03-14T03:07:01.880Z,17.33
2018-03-14T03:09:29.507Z,18.07
2018-03-14T03:11:57.017Z,23.17
2018-03-14T03:14:24.533Z,41.20
2018-03-14T03:16:52.341Z,24.70
2018-03-14T03:19:19.861Z,23.97
2018-03-14T03:21:47.369Z,25.90
2018-03-14T03:24:14.917Z,23.43
2018-03-14T03:26:42.601Z,19.53
2018-03-14T03:29:10.250Z,18.93
2018-03-14T03:31:38.558Z,19.43
2018-03-14T03:34:06.082Z,21.57
2018-03-14T03:36:33.728Z,20.13
2018-03-14T03:39:02.243Z,21.20
2018-03-14T03:41:29.922Z,19.37
2018-03-14T03:43:57.445Z,18.80
2018-03-14T03:46:25.786Z,19.37
2018-03-14T03:48:54.166Z,22.70
2018-03-14T03:51:21.690Z,16.70
2018-03-14T03:53:49.234Z,16.57
2018-03-14T03:56:16.755Z,15.17
2018-03-14T03:58:44.270Z,17.37
2018-03-14T04:01:11.897Z,17.13
2018-03-14T04:03:40.179Z,15.67
2018-03-14T04:06:07.706Z,70.60
2018-03-14T04:08:35.248Z,19.47
2018-03-14T04:11:03.040Z,28.27
2018-03-14T04:13:30.554Z,27.30
2018-03-14T04:15:58.143Z,24.17
2018-03-14T04:18:25.652Z,24.87
2018-03-14T04:20:53.540Z,27.93
2018-03-14T04:23:21.165Z,33.40
2018-03-14T04:25:49.626Z,36.77
2018-03-14T04:28:17.285Z,43.00
2018-03-14T04:30:44.855Z,48.00
2018-03-14T04:33:12.366Z,52.50
2018-03-14T04:35:40.881Z,64.57
2018-03-14T04:38:08.430Z,49.40
2018-03-14T04:40:36.814Z,64.17
2018-03-14T04:43:04.717Z,64.70
2018-03-14T04:45:32.297Z,67.33
2018-03-14T04:47:59.811Z,79.27
2018-03-14T04:50:27.331Z,89.20
2018-03-14T04:52:54.877Z,74.47
2018-03-14T04:55:22.400Z,59.47
2018-03-14T04:57:50.074Z,47.03
2018-03-14T05:00:17.624Z,45.00
2018-03-14T05:02:45.147Z,65.23
2018-03-14T05:05:12.658Z,45.77
2018-03-14T05:07:40.213Z,36.00
2018-03-14T05:10:07.731Z,27.43
2018-03-14T05:12:35.377Z,29.63
2018-03-14T05:15:02.923Z,33.20
2018-03-14T05:17:30.608Z,42.77
2018-03-14T05:19:58.345Z,38.37
2018-03-14T05:22:26.164Z,35.20
2018-03-14T05:24:53.676Z,43.93
2018-03-14T05:27:21.199Z,38.00
2018-03-14T05:29:48.884Z,38.67
2018-03-14T05:32:16.572Z,36.70
2018-03-14T05:34:44.982Z,59.63
2018-03-14T05:37:12.537Z,64.03
2018-03-14T05:39:40.105Z,59.10
2018-03-14T05:42:07.632Z,86.80
2018-03-14T05:44:35.195Z,71.90
2018-03-14T05:47:02.877Z,85.37
2018-03-14T05:49:30.395Z,57.37
2018-03-14T05:51:58.808Z,54.40
2018-03-14T05:54:26.673Z,58.80
2018-03-14T05:56:54.199Z,126.27
2018-03-14T05:59:23.022Z,80.00
2018-03-14T06:01:50.837Z,58.83
2018-03-14T06:04:18.357Z,63.10
2018-03-14T06:06:45.981Z,64.23
2018-03-14T06:09:14.001Z,79.83
2018-03-14T06:11:41.746Z,70.30
2018-03-14T06:14:09.471Z,68.63
2018-03-14T06:16:37.237Z,67.43
2018-03-14T06:19:04.874Z,69.33
2018-03-14T06:21:32.537Z,70.87
2018-03-14T06:24:00.063Z,62.37
2018-03-14T06:26:27.578Z,69.30
2018-03-14T06:28:55.189Z,88.80
2018-03-14T06:31:22.763Z,104.77
2018-03-14T06:33:50.484Z,133.07
2018-03-14T06:36:18.342Z,147.93
2018-03-14T06:38:46.415Z,131.83
2018-03-14T06:41:13.940Z,147.03
2018-03-14T06:43:42.266Z,149.60
2018-03-14T06:46:09.828Z,139.57
2018-03-14T06:48:37.683Z,106.80
2018-03-14T06:51:05.241Z,89.53
2018-03-14T06:53:33.195Z,76.20
2018-03-14T06:56:01.040Z,75.67
2018-03-14T06:58:40.382Z,67.77
2018-03-14T07:01:19.643Z,67.07
2018-03-14T07:06:48.705Z,114.53
2018-03-14T07:09:17.329Z,132.77
2018-03-14T07:11:44.982Z,322.97
2018-03-14T07:14:12.642Z,194.33
2018-03-14T07:16:40.227Z,129.23
2018-03-14T07:19:07.773Z,112.60
2018-03-14T07:21:35.328Z,118.53
2018-03-14T07:24:03.099Z,107.10
2018-03-14T07:26:30.629Z,117.73
2018-03-14T07:28:58.398Z,111.43
2018-03-14T07:31:26.064Z,92.93
2018-03-14T07:33:53.629Z,91.77
2018-03-14T07:36:21.207Z,96.20
2018-03-14T07:38:48.957Z,126.50
2018-03-14T07:41:16.721Z,125.93
2018-03-14T07:43:44.278Z,143.70
2018-03-14T07:46:11.983Z,163.40
2018-03-14T07:48:39.557Z,157.50
2018-03-14T07:51:07.572Z,164.67
2018-03-14T07:53:35.434Z,143.83
2018-03-14T07:56:02.998Z,142.10
2018-03-14T07:58:30.785Z,164.07
2018-03-14T08:00:58.621Z,171.37
2018-03-14T08:03:26.145Z,162.63
2018-03-14T08:05:53.670Z,135.00
2018-03-14T08:08:21.281Z,104.13
2018-03-14T08:10:49.050Z,96.83
2018-03-14T08:13:16.583Z,87.57
2018-03-14T08:15:44.391Z,55.37
2018-03-14T08:18:12.156Z,43.13
2018-03-14T08:20:39.669Z,43.27
2018-03-14T08:23:07.385Z,39.50
2018-03-14T08:25:35.102Z,27.00
2018-03-14T08:28:03.084Z,25.70
2018-03-14T08:30:30.650Z,22.17
2018-03-14T08:32:58.208Z,9.10
2018-03-14T08:35:26.761Z,13.27
2018-03-14T08:37:54.642Z,9.33
2018-03-14T08:40:22.298Z,7.07
2018-03-14T08:42:50.021Z,6.93
2018-03-14T08:45:18.540Z,7.13
2018-03-14T08:47:46.177Z,4.07
2018-03-14T08:50:13.779Z,6.53
2018-03-14T08:52:41.541Z,5.53
2018-03-14T08:55:09.058Z,3.57
2018-03-14T08:57:37.354Z,3.03
2018-03-14T09:00:04.913Z,2.73
2018-03-14T09:02:32.427Z,4.27
2018-03-14T09:05:00.302Z,3.90
2018-03-14T09:07:28.630Z,4.07
2018-03-14T09:09:56.168Z,3.57
2018-03-14T09:12:23.843Z,3.97
2018-03-14T09:14:51.454Z,4.37
2018-03-14T09:17:19.735Z,7.97
2018-03-14T09:19:47.259Z,3.90
2018-03-14T09:22:14.803Z,6.90
2018-03-14T09:24:42.337Z,6.90
2018-03-14T09:27:09.966Z,5.93
2018-03-14T09:29:37.568Z,9.77
2018-03-14T09:32:05.349Z,9.63
2018-03-14T09:34:33.015Z,13.23
2018-03-14T09:37:00.854Z,51.20
2018-03-14T09:39:28.402Z,103.77
2018-03-14T09:41:55.985Z,20.37
2018-03-14T09:44:23.858Z,19.23
2018-03-14T09:46:51.422Z,12.13
2018-03-14T09:49:19.173Z,16.60
2018-03-14T09:51:47.063Z,15.37
2018-03-14T09:54:14.913Z,8.83
2018-03-14T09:56:42.549Z,8.17
2018-03-14T09:59:10.296Z,6.13
2018-03-14T10:01:37.910Z,9.00
2018-03-14T10:04:05.539Z,7.70
2018-03-14T10:06:33.122Z,6.77
2018-03-14T10:09:00.672Z,9.67
2018-03-14T10:11:28.224Z,7.33
2018-03-14T10:13:55.817Z,6.83
2018-03-14T10:16:24.139Z,8.70
2018-03-14T10:18:51.883Z,7.90
2018-03-14T10:21:19.587Z,7.87
2018-03-14T10:23:47.173Z,7.90
2018-03-14T10:26:15.714Z,9.80
2018-03-14T10:28:43.499Z,10.30
2018-03-14T10:31:11.087Z,9.80
2018-03-14T10:33:39.527Z,12.13
2018-03-14T10:36:07.283Z,12.07
2018-03-14T10:38:35.080Z,11.37
2018-03-14T10:41:03.190Z,11.40
2018-03-14T10:43:31.631Z,12.13
2018-03-14T10:45:59.192Z,19.73
2018-03-14T10:48:26.934Z,13.00
2018-03-14T10:50:54.614Z,10.57
2018-03-14T10:53:22.248Z,20.37
2018-03-14T10:55:49.815Z,21.00
2018-03-14T10:58:17.630Z,17.23
2018-03-14T11:00:50.720Z,10.63
2018-03-14T11:03:18.783Z,13.07
2018-03-14T11:05:46.652Z,11.90
2018-03-14T11:08:14.207Z,12.33
2018-03-14T11:10:42.558Z,13.07
2018-03-14T11:13:10.119Z,12.17
2018-03-14T11:15:37.784Z,13.53
2018-03-14T11:18:06.145Z,12.53
2018-03-14T11:20:34.026Z,12.63
2018-03-14T11:23:01.849Z,13.63
2018-03-14T11:25:29.552Z,41.83
2018-03-14T11:27:57.107Z,16.03
2018-03-14T11:30:25.015Z,12.20
2018-03-14T11:32:52.745Z,17.77
2018-03-14T11:35:20.308Z,16.80
2018-03-14T11:37:47.874Z,17.37
2018-03-14T11:40:23.197Z,16.10
2018-03-14T11:42:50.745Z,20.17
2018-03-14T11:45:18.299Z,15.93
2018-03-14T11:47:46.319Z,17.30
2018-03-14T11:50:14.211Z,17.77
2018-03-14T11:52:41.893Z,16.07
2018-03-14T11:55:10.049Z,17.27
2018-03-14T11:57:37.613Z,19.90
2018-03-14T12:00:05.465Z,20.37
2018-03-14T12:02:33.289Z,41.43
2018-03-14T12:05:01.702Z,29.70
2018-03-14T12:07:29.396Z,19.87
2018-03-14T12:09:56.985Z,19.23
2018-03-14T12:12:24.564Z,13.63
2018-03-14T12:14:52.155Z,21.07
2018-03-14T12:17:20.035Z,26.03
2018-03-14T12:19:47.618Z,19.53
2018-03-14T12:22:20.919Z,13.23
2018-03-14T12:24:49.252Z,12.50
2018-03-14T12:27:17.215Z,5.37
2018-03-14T12:29:44.796Z,7.03
2018-03-14T12:32:12.358Z,8.93
2018-03-14T12:34:40.063Z,10.70
2018-03-14T12:37:07.731Z,9.13
2018-03-14T12:39:35.414Z,13.07
2018-03-14T12:42:02.963Z,26.63
2018-03-14T12:44:30.924Z,15.77
2018-03-14T12:46:58.743Z,10.63
2018-03-14T12:49:26.458Z,13.70
2018-03-14T12:51:54.044Z,11.40
2018-03-14T12:54:22.131Z,22.43
2018-03-14T12:56:49.688Z,27.53
2018-03-14T12:59:18.286Z,19.97
2018-03-14T13:01:45.946Z,26.67
2018-03-14T13:04:13.552Z,22.10
2018-03-14T13:06:41.298Z,30.90
2018-03-14T13:09:09.332Z,24.43
2018-03-14T13:11:37.034Z,14.80
2018-03-14T13:14:05.104Z,52.17
2018-03-14T13:16:32.706Z,57.43
2018-03-14T13:19:00.262Z,43.00
2018-03-14T13:21:28.076Z,44.77
2018-03-14T13:23:55.838Z,80.70
2018-03-14T13:26:23.487Z,29.07
2018-03-14T13:28:51.435Z,53.07
2018-03-14T13:31:18.998Z,58.97
2018-03-14T13:33:46.567Z,31.90
2018-03-14T13:36:14.928Z,15.53
2018-03-14T13:38:42.705Z,18.60
2018-03-14T13:41:11.140Z,41.30
2018-03-14T13:43:38.942Z,34.70
2018-03-14T13:46:06.751Z,43.00
2018-03-14T13:48:34.313Z,11.47
2018-03-14T13:51:01.920Z,8.53
2018-03-14T13:53:29.527Z,9.90
2018-03-14T13:55:57.203Z,24.43
2018-03-14T13:58:24.880Z,14.13
2018-03-14T14:00:52.520Z,14.03
2018-03-14T14:03:20.290Z,7.97
2018-03-14T14:05:48.283Z,16.53
2018-03-14T14:08:15.850Z,15.47
2018-03-14T14:10:43.395Z,10.93
2018-03-14T14:13:11.202Z,11.60
2018-03-14T14:15:39.896Z,55.83
2018-03-14T14:18:07.566Z,84.37
2018-03-14T14:20:35.519Z,35.00
2018-03-14T14:23:03.226Z,33.00
2018-03-14T14:25:31.282Z,23.43
2018-03-14T14:27:59.227Z,35.93
2018-03-14T14:30:26.817Z,45.30
2018-03-14T14:32:54.387Z,180.33
2018-03-14T14:35:22.745Z,58.43
2018-03-14T14:37:50.576Z,40.53
2018-03-14T14:40:18.764Z,31.00
2018-03-14T14:42:46.472Z,61.87
2018-03-14T14:45:14.026Z,69.50
2018-03-14T14:47:41.585Z,93.10
2018-03-14T14:50:09.204Z,342.20
2018-03-14T14:52:36.756Z,69.93
2018-03-14T14:55:04.512Z,245.77
2018-03-14T14:57:32.173Z,79.90
2018-03-14T14:59:59.733Z,60.50
2018-03-14T15:02:27.291Z,80.03
2018-03-14T15:04:55.024Z,92.23
2018-03-14T15:07:22.790Z,109.30
2018-03-14T15:09:51.128Z,92.93
2018-03-14T15:12:18.719Z,117.40
2018-03-14T15:14:46.400Z,135.13
2018-03-14T15:17:14.745Z,79.00
2018-03-14T15:19:43.366Z,38.83
2018-03-14T15:22:10.941Z,47.83
2018-03-14T15:24:38.621Z,47.17
2018-03-14T15:27:06.327Z,140.83
2018-03-14T15:29:33.953Z,90.70
2018-03-14T15:32:01.558Z,85.27
2018-03-14T15:34:29.447Z,87.03
2018-03-14T15:36:57.017Z,97.70
2018-03-14T15:39:24.821Z,88.87
2018-03-14T15:41:52.422Z,56.93
2018-03-14T15:44:20.362Z,64.57
2018-03-14T15:46:48.424Z,78.23
2018-03-14T15:49:16.010Z,46.50
2018-03-14T15:51:43.804Z,53.00
2018-03-14T15:54:12.054Z,42.77
2018-03-14T15:56:39.666Z,53.90
2018-03-14T15:59:08.421Z,45.07
2018-03-14T16:01:36.109Z,35.93
2018-03-14T16:04:04.018Z,63.67
2018-03-14T16:06:31.764Z,49.10
2018-03-14T16:08:59.847Z,92.17
2018-03-14T16:11:27.515Z,72.03
2018-03-14T16:13:55.527Z,45.63
2018-03-14T16:16:23.323Z,75.50
2018-03-14T16:18:51.252Z,52.57
2018-03-14T16:21:19.053Z,59.63
2018-03-14T16:23:47.430Z,54.03
2018-03-14T16:26:16.036Z,47.00
2018-03-14T16:28:43.626Z,197.63
2018-03-14T16:31:11.401Z,112.60
2018-03-14T16:33:39.139Z,170.57
2018-03-14T16:36:07.009Z,163.63
2018-03-14T16:38:34.819Z,56.40
2018-03-14T16:41:02.862Z,91.57
2018-03-14T16:43:30.733Z,282.07
2018-03-14T16:45:58.797Z,156.30
2018-03-14T16:48:27.072Z,225.77
2018-03-14T16:50:54.772Z,169.37
2018-03-14T16:53:22.803Z,60.50
2018-03-14T16:55:50.668Z,130.50
2018-03-14T16:58:18.284Z,34.40
2018-03-14T17:00:46.194Z,29.90
2018-03-14T17:03:14.682Z,38.30
2018-03-14T17:05:42.663Z,67.90
2018-03-14T17:08:10.836Z,70.20
2018-03-14T17:10:38.654Z,79.70
2018-03-14T17:13:06.243Z,70.37
2018-03-14T17:15:34.242Z,61.30
2018-03-14T17:18:02.277Z,46.43
2018-03-14T17:20:30.222Z,56.03
2018-03-14T17:22:57.803Z,62.73
2018-03-14T17:25:25.880Z,215.83
2018-03-14T17:27:53.722Z,297.47
2018-03-14T17:30:21.604Z,208.70
2018-03-14T17:32:49.288Z,124.33
2018-03-14T17:35:17.385Z,45.87
2018-03-14T17:37:46.226Z,58.27
2018-03-14T17:40:14.294Z,45.57
2018-03-14T17:42:42.163Z,45.90
2018-03-14T17:45:09.780Z,103.77
2018-03-14T17:47:37.750Z,74.10
2018-03-14T17:50:05.827Z,46.50
2018-03-14T17:52:34.033Z,42.67
2018-03-14T17:55:02.448Z,43.67
2018-03-14T17:57:30.376Z,47.67
2018-03-14T17:59:57.974Z,44.70
2018-03-14T18:02:25.800Z,39.90
2018-03-14T18:04:53.965Z,56.33
2018-03-14T18:07:21.912Z,49.20
2018-03-14T18:09:49.795Z,54.93
2018-03-14T18:12:17.574Z,78.53
2018-03-14T18:14:47.074Z,58.73
2018-03-14T18:17:15.066Z,44.43
2018-03-14T18:19:43.426Z,60.70
2018-03-14T18:22:11.699Z,38.70
2018-03-14T18:24:39.774Z,36.80
2018-03-14T18:27:08.247Z,44.77
2018-03-14T18:29:36.520Z,40.47
2018-03-14T18:32:05.003Z,26.00
2018-03-14T18:34:33.288Z,34.47
2018-03-14T18:37:01.006Z,36.10
2018-03-14T18:39:29.364Z,39.07
2018-03-14T18:41:57.293Z,40.60
2018-03-14T18:44:25.254Z,54.00
2018-03-14T18:46:53.290Z,58.27
2018-03-14T18:49:20.974Z,56.23
2018-03-14T18:51:49.151Z,55.80
2018-03-14T18:54:17.226Z,49.77
2018-03-14T18:56:45.501Z,60.37
2018-03-14T18:59:13.504Z,53.10
2018-03-14T19:01:41.879Z,53.37
2018-03-14T19:04:10.284Z,51.93
2018-03-14T19:06:38.349Z,44.70
2018-03-14T19:09:06.465Z,43.53
2018-03-14T19:11:35.764Z,49.17
2018-03-14T19:14:03.776Z,50.57
2018-03-14T19:16:31.520Z,38.87
2018-03-14T19:18:59.366Z,46.17
2018-03-14T19:21:27.840Z,45.27
2018-03-14T19:23:56.115Z,47.67
2018-03-14T19:26:24.158Z,59.33
2018-03-14T19:28:52.259Z,54.23
2018-03-14T19:31:20.132Z,67.77
2018-03-14T19:33:47.884Z,104.97
2018-03-14T19:36:15.870Z,59.27
2018-03-14T19:38:44.072Z,64.70
2018-03-14T19:41:12.219Z,177.93
2018-03-14T19:43:41.505Z,91.07
2018-03-14T19:46:11.048Z,100.70
2018-03-14T19:48:38.740Z,68.97
2018-03-14T19:51:06.324Z,88.73
2018-03-14T19:53:34.108Z,73.23
2018-03-14T19:56:01.953Z,75.93
2018-03-14T19:58:30.083Z,79.77
2018-03-14T20:00:57.915Z,85.43
2018-03-14T20:03:25.967Z,89.17
2018-03-14T20:05:55.570Z,85.17
2018-03-14T20:08:23.663Z,83.87
2018-03-14T20:10:51.298Z,90.43
2018-03-14T20:13:19.160Z,93.30
2018-03-14T20:15:47.500Z,93.73
2018-03-14T20:18:15.125Z,94.87
2018-03-14T20:20:42.971Z,113.80
2018-03-14T20:23:11.205Z,95.13
2018-03-14T20:25:39.428Z,100.10
2018-03-14T20:28:07.592Z,95.60
2018-03-14T20:30:35.658Z,88.37
2018-03-14T20:33:03.933Z,91.03
2018-03-14T20:35:32.209Z,89.87
2018-03-14T20:38:00.277Z,75.83
2018-03-14T20:40:28.080Z,72.57
2018-03-14T20:42:56.125Z,79.83
2018-03-14T20:45:24.525Z,76.43
2018-03-14T20:47:52.727Z,84.83
2018-03-14T20:50:21.101Z,76.10
2018-03-14T20:52:49.109Z,59.90
2018-03-14T20:55:16.974Z,58.33
2018-03-14T20:57:44.565Z,63.60
2018-03-14T21:00:12.387Z,88.77
2018-03-14T21:02:40.006Z,72.00
2018-03-14T21:05:07.630Z,101.50
2018-03-14T21:07:35.292Z,95.07
2018-03-14T21:10:03.144Z,89.53
2018-03-14T21:12:30.700Z,78.57
2018-03-14T21:14:58.360Z,87.53
2018-03-14T21:17:25.932Z,90.60
2018-03-14T21:19:53.512Z,93.13
2018-03-14T21:22:21.128Z,92.13
2018-03-14T21:24:48.902Z,99.43
2018-03-14T21:27:16.839Z,110.50
2018-03-14T21:29:45.287Z,116.97
2018-03-14T21:32:12.908Z,108.83
2018-03-14T21:34:40.489Z,131.00
2018-03-14T21:37:08.105Z,136.30
2018-03-14T21:39:36.068Z,147.27
2018-03-14T21:42:03.623Z,146.83
2018-03-14T21:44:32.271Z,134.37
2018-03-14T21:46:59.859Z,144.40
2018-03-14T21:49:27.643Z,172.93
2018-03-14T21:51:56.267Z,154.20
2018-03-14T21:54:23.856Z,147.17
2018-03-14T21:56:51.423Z,139.27
2018-03-14T21:59:19.916Z,88.93
2018-03-14T22:01:47.478Z,102.60
2018-03-14T22:04:15.041Z,130.13
2018-03-14T22:06:43.063Z,142.80
2018-03-14T22:09:10.911Z,92.10
2018-03-14T22:11:39.431Z,90.80
2018-03-14T22:14:07.828Z,66.23
2018-03-14T22:16:35.563Z,71.43
2018-03-14T22:19:03.106Z,59.57
2018-03-14T22:21:30.699Z,62.13
2018-03-14T22:23:59.094Z,62.07
2018-03-14T22:26:27.019Z,63.20
2018-03-14T22:28:54.842Z,65.13
2018-03-14T22:31:22.547Z,61.23
2018-03-14T22:33:50.885Z,62.07
2018-03-14T22:36:18.494Z,59.83
2018-03-14T22:38:46.812Z,78.43
2018-03-14T22:41:14.372Z,120.40
2018-03-14T22:43:41.971Z,162.20
2018-03-14T22:46:09.972Z,113.07
2018-03-14T22:48:37.531Z,109.23
2018-03-14T22:51:05.163Z,138.07
2018-03-14T22:53:32.719Z,146.30
2018-03-14T22:56:00.283Z,126.13
2018-03-14T22:58:28.637Z,114.70
2018-03-14T23:00:56.460Z,104.77
2018-03-14T23:03:24.123Z,93.57
2018-03-14T23:05:51.879Z,105.40
2018-03-14T23:08:19.683Z,98.00
2018-03-14T23:10:47.319Z,96.93
2018-03-14T23:13:15.226Z,92.43
2018-03-14T23:15:42.787Z,116.47
2018-03-14T23:18:10.703Z,105.57
2018-03-14T23:20:38.611Z,111.63
2018-03-14T23:23:06.190Z,117.00
2018-03-14T23:25:33.759Z,119.20
2018-03-14T23:28:02.214Z,118.33
2018-03-14T23:30:29.770Z,141.40
2018-03-14T23:32:57.478Z,130.73
2018-03-14T23:35:25.199Z,129.13
2018-03-14T23:37:52.866Z,121.83
2018-03-14T23:40:20.539Z,111.13
2018-03-14T23:42:48.903Z,114.23
2018-03-14T23:45:16.659Z,114.07
2018-03-14T23:47:44.337Z,115.57
2018-03-14T23:50:12.846Z,124.13
2018-03-14T23:52:40.621Z,124.57
2018-03-14T23:55:08.267Z,124.47
2018-03-14T23:57:36.157Z,115.00
